sensor_id;sensor_type;location;lat;lon;timestamp;P1;durP1;ratioP1;P2;durP2;ratioP2
16403;SDS011;8311;50.158;8.642;2022-12-18T00:02:13;1.25;;;0.95;;
16403;SDS011;8311;50.158;8.642;2022-12-18T00:05:06;1.98;;;1.20;;
16403;SDS011;8311;50.158;8.642;2022-12-18T00:08:00;1.80;;;1.33;;
16403;SDS011;8311;50.158;8.642;2022-12-18T00:11:03;2.88;;;1.30;;
16403;SDS011;8311;50.158;8.642;2022-12-18T00:13:57;3.67;;;1.42;;
16403;SDS011;8311;50.158;8.642;2022-12-18T00:16:53;2.13;;;1.17;;
16403;SDS011;8311;50.158;8.642;2022-12-18T00:19:46;1.48;;;1.00;;
16403;SDS011;8311;50.158;8.642;2022-12-18T00:22:39;2.08;;;1.30;;
16403;SDS011;8311;50.158;8.642;2022-12-18T00:25:32;2.15;;;1.30;;
16403;SDS011;8311;50.158;8.642;2022-12-18T00:28:26;2.30;;;1.45;;
16403;SDS011;8311;50.158;8.642;2022-12-18T00:31:19;1.92;;;1.40;;
16403;SDS011;8311;50.158;8.642;2022-12-18T00:34:15;1.48;;;1.20;;
16403;SDS011;8311;50.158;8.642;2022-12-18T00:37:08;1.50;;;1.13;;
16403;SDS011;8311;50.158;8.642;2022-12-18T00:40:07;2.20;;;1.30;;
16403;SDS011;8311;50.158;8.642;2022-12-18T00:43:01;3.35;;;1.48;;
16403;SDS011;8311;50.158;8.642;2022-12-18T00:45:53;1.92;;;1.23;;
16403;SDS011;8311;50.158;8.642;2022-12-18T00:48:47;1.50;;;1.20;;
16403;SDS011;8311;50.158;8.642;2022-12-18T00:51:42;2.03;;;1.33;;
16403;SDS011;8311;50.158;8.642;2022-12-18T00:54:35;2.53;;;1.20;;
16403;SDS011;8311;50.158;8.642;2022-12-18T00:57:28;1.80;;;1.15;;
16403;SDS011;8311;50.158;8.642;2022-12-18T01:00:21;2.20;;;1.40;;
16403;SDS011;8311;50.158;8.642;2022-12-18T01:03:14;1.80;;;1.23;;
16403;SDS011;8311;50.158;8.642;2022-12-18T01:06:10;1.50;;;1.27;;
16403;SDS011;8311;50.158;8.642;2022-12-18T01:09:05;1.52;;;1.08;;
16403;SDS011;8311;50.158;8.642;2022-12-18T01:11:59;3.35;;;1.15;;
16403;SDS011;8311;50.158;8.642;2022-12-18T01:14:52;2.95;;;1.60;;
16403;SDS011;8311;50.158;8.642;2022-12-18T01:17:45;1.50;;;1.20;;
16403;SDS011;8311;50.158;8.642;2022-12-18T01:20:38;2.20;;;1.50;;
16403;SDS011;8311;50.158;8.642;2022-12-18T01:23:31;2.38;;;1.40;;
16403;SDS011;8311;50.158;8.642;2022-12-18T01:26:25;1.92;;;1.38;;
16403;SDS011;8311;50.158;8.642;2022-12-18T01:29:21;2.72;;;1.42;;
16403;SDS011;8311;50.158;8.642;2022-12-18T01:32:14;2.42;;;1.50;;
16403;SDS011;8311;50.158;8.642;2022-12-18T01:35:07;1.60;;;1.30;;
16403;SDS011;8311;50.158;8.642;2022-12-18T01:38:00;2.22;;;1.30;;
16403;SDS011;8311;50.158;8.642;2022-12-18T01:40:56;2.10;;;1.27;;
16403;SDS011;8311;50.158;8.642;2022-12-18T01:43:52;1.93;;;1.17;;
16403;SDS011;8311;50.158;8.642;2022-12-18T01:46:48;2.05;;;1.25;;
16403;SDS011;8311;50.158;8.642;2022-12-18T01:49:41;1.65;;;1.40;;
16403;SDS011;8311;50.158;8.642;2022-12-18T01:52:35;3.25;;;1.42;;
16403;SDS011;8311;50.158;8.642;2022-12-18T01:55:30;2.13;;;1.35;;
16403;SDS011;8311;50.158;8.642;2022-12-18T01:58:29;1.73;;;1.10;;
16403;SDS011;8311;50.158;8.642;2022-12-18T02:01:28;3.10;;;1.30;;
16403;SDS011;8311;50.158;8.642;2022-12-18T02:04:24;1.83;;;1.23;;
16403;SDS011;8311;50.158;8.642;2022-12-18T02:07:20;1.48;;;1.20;;
16403;SDS011;8311;50.158;8.642;2022-12-18T02:10:22;2.17;;;1.52;;
16403;SDS011;8311;50.158;8.642;2022-12-18T02:13:19;1.77;;;1.20;;
16403;SDS011;8311;50.158;8.642;2022-12-18T02:16:19;1.55;;;1.35;;
16403;SDS011;8311;50.158;8.642;2022-12-18T02:19:25;1.33;;;1.10;;
16403;SDS011;8311;50.158;8.642;2022-12-18T02:22:34;2.70;;;1.63;;
16403;SDS011;8311;50.158;8.642;2022-12-18T02:25:37;2.13;;;1.35;;
16403;SDS011;8311;50.158;8.642;2022-12-18T02:28:41;1.90;;;1.30;;
16403;SDS011;8311;50.158;8.642;2022-12-18T02:31:38;4.03;;;1.35;;
16403;SDS011;8311;50.158;8.642;2022-12-18T02:34:35;1.60;;;1.00;;
16403;SDS011;8311;50.158;8.642;2022-12-18T02:37:30;2.30;;;1.53;;
16403;SDS011;8311;50.158;8.642;2022-12-18T02:40:26;2.15;;;1.20;;
16403;SDS011;8311;50.158;8.642;2022-12-18T02:43:20;2.03;;;1.33;;
16403;SDS011;8311;50.158;8.642;2022-12-18T02:46:27;1.48;;;1.05;;
16403;SDS011;8311;50.158;8.642;2022-12-18T02:49:34;1.90;;;1.27;;
16403;SDS011;8311;50.158;8.642;2022-12-18T02:52:35;1.95;;;1.20;;
16403;SDS011;8311;50.158;8.642;2022-12-18T02:55:37;1.85;;;1.27;;
16403;SDS011;8311;50.158;8.642;2022-12-18T02:58:40;1.83;;;1.20;;
16403;SDS011;8311;50.158;8.642;2022-12-18T03:01:42;2.17;;;1.50;;
16403;SDS011;8311;50.158;8.642;2022-12-18T03:04:43;2.17;;;1.40;;
16403;SDS011;8311;50.158;8.642;2022-12-18T03:07:42;1.73;;;1.10;;
16403;SDS011;8311;50.158;8.642;2022-12-18T03:10:41;1.58;;;1.25;;
16403;SDS011;8311;50.158;8.642;2022-12-18T03:13:39;1.52;;;1.23;;
16403;SDS011;8311;50.158;8.642;2022-12-18T03:16:35;2.63;;;1.27;;
16403;SDS011;8311;50.158;8.642;2022-12-18T03:19:31;2.17;;;1.35;;
16403;SDS011;8311;50.158;8.642;2022-12-18T03:22:26;1.80;;;1.15;;
16403;SDS011;8311;50.158;8.642;2022-12-18T03:25:22;1.65;;;1.30;;
16403;SDS011;8311;50.158;8.642;2022-12-18T03:28:18;1.57;;;1.30;;
16403;SDS011;8311;50.158;8.642;2022-12-18T03:31:13;1.88;;;1.38;;
16403;SDS011;8311;50.158;8.642;2022-12-18T03:34:09;2.03;;;1.33;;
16403;SDS011;8311;50.158;8.642;2022-12-18T03:37:08;2.13;;;1.43;;
16403;SDS011;8311;50.158;8.642;2022-12-18T03:40:03;1.88;;;1.15;;
16403;SDS011;8311;50.158;8.642;2022-12-18T03:42:58;1.75;;;1.27;;
16403;SDS011;8311;50.158;8.642;2022-12-18T03:45:58;2.05;;;1.40;;
16403;SDS011;8311;50.158;8.642;2022-12-18T03:48:59;2.55;;;1.50;;
16403;SDS011;8311;50.158;8.642;2022-12-18T03:51:59;1.77;;;1.20;;
16403;SDS011;8311;50.158;8.642;2022-12-18T03:54:58;1.47;;;1.30;;
16403;SDS011;8311;50.158;8.642;2022-12-18T03:57:54;1.45;;;1.00;;
16403;SDS011;8311;50.158;8.642;2022-12-18T04:00:48;1.53;;;1.20;;
16403;SDS011;8311;50.158;8.642;2022-12-18T04:03:44;1.65;;;1.35;;
16403;SDS011;8311;50.158;8.642;2022-12-18T04:06:41;1.40;;;1.00;;
16403;SDS011;8311;50.158;8.642;2022-12-18T04:09:36;1.65;;;1.10;;
16403;SDS011;8311;50.158;8.642;2022-12-18T04:12:33;2.03;;;1.23;;
16403;SDS011;8311;50.158;8.642;2022-12-18T04:15:26;1.80;;;1.30;;
16403;SDS011;8311;50.158;8.642;2022-12-18T04:18:19;2.00;;;1.50;;
16403;SDS011;8311;50.158;8.642;2022-12-18T04:21:12;2.08;;;1.40;;
16403;SDS011;8311;50.158;8.642;2022-12-18T04:24:05;2.33;;;1.30;;
16403;SDS011;8311;50.158;8.642;2022-12-18T04:26:59;1.48;;;1.10;;
16403;SDS011;8311;50.158;8.642;2022-12-18T04:29:55;2.03;;;1.23;;
16403;SDS011;8311;50.158;8.642;2022-12-18T04:32:48;1.60;;;1.13;;
16403;SDS011;8311;50.158;8.642;2022-12-18T04:35:42;1.75;;;1.20;;
16403;SDS011;8311;50.158;8.642;2022-12-18T04:38:35;1.80;;;1.33;;
16403;SDS011;8311;50.158;8.642;2022-12-18T04:41:28;1.83;;;1.58;;
16403;SDS011;8311;50.158;8.642;2022-12-18T04:44:21;1.75;;;1.17;;
16403;SDS011;8311;50.158;8.642;2022-12-18T04:47:16;2.10;;;1.40;;
16403;SDS011;8311;50.158;8.642;2022-12-18T04:50:09;1.60;;;1.13;;
16403;SDS011;8311;50.158;8.642;2022-12-18T04:53:02;1.73;;;1.17;;
16403;SDS011;8311;50.158;8.642;2022-12-18T04:56:02;1.87;;;1.27;;
16403;SDS011;8311;50.158;8.642;2022-12-18T04:59:00;1.25;;;1.05;;
16403;SDS011;8311;50.158;8.642;2022-12-18T05:01:53;2.10;;;1.23;;
16403;SDS011;8311;50.158;8.642;2022-12-18T05:04:47;2.58;;;1.40;;
16403;SDS011;8311;50.158;8.642;2022-12-18T05:07:40;1.30;;;1.10;;
16403;SDS011;8311;50.158;8.642;2022-12-18T05:10:33;1.42;;;1.05;;
16403;SDS011;8311;50.158;8.642;2022-12-18T05:13:28;1.93;;;1.20;;
16403;SDS011;8311;50.158;8.642;2022-12-18T05:16:23;1.73;;;1.10;;
16403;SDS011;8311;50.158;8.642;2022-12-18T05:19:16;1.77;;;1.20;;
16403;SDS011;8311;50.158;8.642;2022-12-18T05:22:10;1.83;;;1.30;;
16403;SDS011;8311;50.158;8.642;2022-12-18T05:25:04;3.65;;;1.15;;
16403;SDS011;8311;50.158;8.642;2022-12-18T05:27:58;2.15;;;1.20;;
16403;SDS011;8311;50.158;8.642;2022-12-18T05:30:52;1.67;;;1.23;;
16403;SDS011;8311;50.158;8.642;2022-12-18T05:33:46;1.53;;;1.20;;
16403;SDS011;8311;50.158;8.642;2022-12-18T05:36:39;2.03;;;1.50;;
16403;SDS011;8311;50.158;8.642;2022-12-18T05:39:34;1.10;;;1.00;;
16403;SDS011;8311;50.158;8.642;2022-12-18T05:42:26;2.40;;;1.40;;
16403;SDS011;8311;50.158;8.642;2022-12-18T05:45:19;2.05;;;1.35;;
16403;SDS011;8311;50.158;8.642;2022-12-18T05:48:12;1.40;;;1.20;;
16403;SDS011;8311;50.158;8.642;2022-12-18T05:51:06;1.80;;;1.20;;
16403;SDS011;8311;50.158;8.642;2022-12-18T05:54:00;1.57;;;1.20;;
16403;SDS011;8311;50.158;8.642;2022-12-18T05:56:55;1.40;;;1.10;;
16403;SDS011;8311;50.158;8.642;2022-12-18T05:59:49;1.67;;;1.20;;
16403;SDS011;8311;50.158;8.642;2022-12-18T06:02:46;1.83;;;1.30;;
16403;SDS011;8311;50.158;8.642;2022-12-18T06:05:40;2.28;;;1.33;;
16403;SDS011;8311;50.158;8.642;2022-12-18T06:08:35;1.35;;;1.13;;
16403;SDS011;8311;50.158;8.642;2022-12-18T06:11:36;1.57;;;1.10;;
16403;SDS011;8311;50.158;8.642;2022-12-18T06:14:31;1.80;;;1.35;;
16403;SDS011;8311;50.158;8.642;2022-12-18T06:17:27;1.83;;;1.33;;
16403;SDS011;8311;50.158;8.642;2022-12-18T06:20:20;1.93;;;1.40;;
16403;SDS011;8311;50.158;8.642;2022-12-18T06:23:13;1.65;;;1.30;;
16403;SDS011;8311;50.158;8.642;2022-12-18T06:26:06;1.65;;;1.13;;
16403;SDS011;8311;50.158;8.642;2022-12-18T06:29:00;1.57;;;1.10;;
16403;SDS011;8311;50.158;8.642;2022-12-18T06:31:56;2.13;;;1.65;;
16403;SDS011;8311;50.158;8.642;2022-12-18T06:35:07;1.67;;;1.30;;
16403;SDS011;8311;50.158;8.642;2022-12-18T06:38:00;1.80;;;1.33;;
16403;SDS011;8311;50.158;8.642;2022-12-18T06:40:55;2.08;;;1.40;;
16403;SDS011;8311;50.158;8.642;2022-12-18T06:43:47;2.37;;;1.50;;
16403;SDS011;8311;50.158;8.642;2022-12-18T06:46:40;1.67;;;1.10;;
16403;SDS011;8311;50.158;8.642;2022-12-18T06:49:34;2.38;;;1.38;;
16403;SDS011;8311;50.158;8.642;2022-12-18T06:52:28;2.05;;;1.27;;
16403;SDS011;8311;50.158;8.642;2022-12-18T06:55:23;2.00;;;1.47;;
16403;SDS011;8311;50.158;8.642;2022-12-18T06:58:17;1.73;;;1.50;;
16403;SDS011;8311;50.158;8.642;2022-12-18T07:01:10;2.60;;;1.30;;
16403;SDS011;8311;50.158;8.642;2022-12-18T07:04:04;1.30;;;1.00;;
16403;SDS011;8311;50.158;8.642;2022-12-18T07:06:59;1.60;;;1.20;;
16403;SDS011;8311;50.158;8.642;2022-12-18T07:09:52;1.77;;;1.30;;
16403;SDS011;8311;50.158;8.642;2022-12-18T07:12:46;1.97;;;1.13;;
16403;SDS011;8311;50.158;8.642;2022-12-18T07:15:39;1.67;;;1.30;;
16403;SDS011;8311;50.158;8.642;2022-12-18T07:18:33;1.73;;;1.23;;
16403;SDS011;8311;50.158;8.642;2022-12-18T07:21:26;2.00;;;1.40;;
16403;SDS011;8311;50.158;8.642;2022-12-18T07:24:20;1.33;;;1.20;;
16403;SDS011;8311;50.158;8.642;2022-12-18T07:27:14;1.10;;;1.00;;
16403;SDS011;8311;50.158;8.642;2022-12-18T07:30:08;1.87;;;1.50;;
16403;SDS011;8311;50.158;8.642;2022-12-18T07:33:02;2.00;;;1.40;;
16403;SDS011;8311;50.158;8.642;2022-12-18T07:35:55;1.95;;;1.48;;
16403;SDS011;8311;50.158;8.642;2022-12-18T07:38:49;1.73;;;1.17;;
16403;SDS011;8311;50.158;8.642;2022-12-18T07:41:45;1.58;;;1.20;;
16403;SDS011;8311;50.158;8.642;2022-12-18T07:44:58;1.75;;;1.33;;
16403;SDS011;8311;50.158;8.642;2022-12-18T07:47:52;1.27;;;1.17;;
16403;SDS011;8311;50.158;8.642;2022-12-18T07:50:45;1.58;;;1.15;;
16403;SDS011;8311;50.158;8.642;2022-12-18T07:53:39;1.92;;;1.20;;
16403;SDS011;8311;50.158;8.642;2022-12-18T07:56:32;1.77;;;1.33;;
16403;SDS011;8311;50.158;8.642;2022-12-18T07:59:28;1.75;;;1.20;;
16403;SDS011;8311;50.158;8.642;2022-12-18T08:02:21;1.37;;;1.13;;
16403;SDS011;8311;50.158;8.642;2022-12-18T08:05:15;1.83;;;1.35;;
16403;SDS011;8311;50.158;8.642;2022-12-18T08:08:09;2.03;;;1.20;;
16403;SDS011;8311;50.158;8.642;2022-12-18T08:11:02;2.50;;;1.40;;
16403;SDS011;8311;50.158;8.642;2022-12-18T08:13:55;1.73;;;1.30;;
16403;SDS011;8311;50.158;8.642;2022-12-18T08:16:51;2.05;;;1.35;;
16403;SDS011;8311;50.158;8.642;2022-12-18T08:19:44;1.80;;;1.27;;
16403;SDS011;8311;50.158;8.642;2022-12-18T08:22:37;2.10;;;1.20;;
16403;SDS011;8311;50.158;8.642;2022-12-18T08:25:30;2.00;;;1.50;;
16403;SDS011;8311;50.158;8.642;2022-12-18T08:28:23;1.67;;;1.33;;
16403;SDS011;8311;50.158;8.642;2022-12-18T08:31:17;1.98;;;1.17;;
16403;SDS011;8311;50.158;8.642;2022-12-18T08:34:14;1.67;;;1.17;;
16403;SDS011;8311;50.158;8.642;2022-12-18T08:37:06;1.90;;;1.10;;
16403;SDS011;8311;50.158;8.642;2022-12-18T08:40:00;1.60;;;1.30;;
16403;SDS011;8311;50.158;8.642;2022-12-18T08:42:52;2.40;;;1.57;;
16403;SDS011;8311;50.158;8.642;2022-12-18T08:46:04;1.80;;;1.30;;
16403;SDS011;8311;50.158;8.642;2022-12-18T08:48:57;2.30;;;1.33;;
16403;SDS011;8311;50.158;8.642;2022-12-18T08:51:55;2.17;;;1.50;;
16403;SDS011;8311;50.158;8.642;2022-12-18T08:54:48;1.60;;;1.33;;
16403;SDS011;8311;50.158;8.642;2022-12-18T08:57:41;1.97;;;1.37;;
16403;SDS011;8311;50.158;8.642;2022-12-18T09:00:36;1.63;;;1.30;;
16403;SDS011;8311;50.158;8.642;2022-12-18T09:03:29;2.90;;;1.30;;
16403;SDS011;8311;50.158;8.642;2022-12-18T09:06:22;2.47;;;1.50;;
16403;SDS011;8311;50.158;8.642;2022-12-18T09:09:19;1.77;;;1.30;;
16403;SDS011;8311;50.158;8.642;2022-12-18T09:12:12;1.80;;;1.30;;
16403;SDS011;8311;50.158;8.642;2022-12-18T09:15:05;1.92;;;1.35;;
16403;SDS011;8311;50.158;8.642;2022-12-18T09:17:59;1.90;;;1.30;;
16403;SDS011;8311;50.158;8.642;2022-12-18T09:20:52;3.23;;;1.60;;
16403;SDS011;8311;50.158;8.642;2022-12-18T09:23:48;1.70;;;1.07;;
16403;SDS011;8311;50.158;8.642;2022-12-18T09:26:44;2.87;;;1.27;;
16403;SDS011;8311;50.158;8.642;2022-12-18T09:29:38;3.27;;;1.47;;
16403;SDS011;8311;50.158;8.642;2022-12-18T09:32:31;1.92;;;1.38;;
16403;SDS011;8311;50.158;8.642;2022-12-18T09:35:24;2.23;;;1.33;;
16403;SDS011;8311;50.158;8.642;2022-12-18T09:38:18;1.70;;;1.17;;
16403;SDS011;8311;50.158;8.642;2022-12-18T09:41:19;2.13;;;1.50;;
16403;SDS011;8311;50.158;8.642;2022-12-18T09:44:27;2.15;;;1.38;;
16403;SDS011;8311;50.158;8.642;2022-12-18T09:47:33;3.00;;;1.50;;
16403;SDS011;8311;50.158;8.642;2022-12-18T09:50:31;2.80;;;1.33;;
16403;SDS011;8311;50.158;8.642;2022-12-18T09:53:30;2.20;;;1.33;;
16403;SDS011;8311;50.158;8.642;2022-12-18T09:56:25;3.23;;;1.70;;
16403;SDS011;8311;50.158;8.642;2022-12-18T09:59:23;1.97;;;1.27;;
16403;SDS011;8311;50.158;8.642;2022-12-18T10:02:21;2.10;;;1.45;;
16403;SDS011;8311;50.158;8.642;2022-12-18T10:05:16;2.85;;;1.38;;
16403;SDS011;8311;50.158;8.642;2022-12-18T10:08:13;1.75;;;1.25;;
16403;SDS011;8311;50.158;8.642;2022-12-18T10:11:27;3.30;;;1.70;;
16403;SDS011;8311;50.158;8.642;2022-12-18T10:14:30;2.23;;;1.63;;
16403;SDS011;8311;50.158;8.642;2022-12-18T10:17:33;2.23;;;1.40;;
16403;SDS011;8311;50.158;8.642;2022-12-18T10:20:32;1.43;;;1.30;;
16403;SDS011;8311;50.158;8.642;2022-12-18T10:23:32;2.77;;;1.50;;
16403;SDS011;8311;50.158;8.642;2022-12-18T10:26:39;4.10;;;1.50;;
16403;SDS011;8311;50.158;8.642;2022-12-18T10:29:33;2.30;;;1.52;;
16403;SDS011;8311;50.158;8.642;2022-12-18T10:32:27;2.60;;;1.60;;
16403;SDS011;8311;50.158;8.642;2022-12-18T10:35:23;2.40;;;1.50;;
16403;SDS011;8311;50.158;8.642;2022-12-18T10:38:22;1.83;;;1.30;;
16403;SDS011;8311;50.158;8.642;2022-12-18T10:41:25;2.20;;;1.52;;
16403;SDS011;8311;50.158;8.642;2022-12-18T10:44:20;2.08;;;1.60;;
16403;SDS011;8311;50.158;8.642;2022-12-18T10:47:15;2.17;;;1.43;;
16403;SDS011;8311;50.158;8.642;2022-12-18T10:50:18;2.67;;;1.67;;
16403;SDS011;8311;50.158;8.642;2022-12-18T10:53:28;2.47;;;1.70;;
16403;SDS011;8311;50.158;8.642;2022-12-18T10:56:24;2.43;;;1.70;;
16403;SDS011;8311;50.158;8.642;2022-12-18T10:59:19;2.77;;;1.50;;
16403;SDS011;8311;50.158;8.642;2022-12-18T11:02:23;3.17;;;1.80;;
16403;SDS011;8311;50.158;8.642;2022-12-18T11:05:25;2.20;;;1.60;;
16403;SDS011;8311;50.158;8.642;2022-12-18T11:08:20;2.73;;;1.80;;
16403;SDS011;8311;50.158;8.642;2022-12-18T11:11:17;2.97;;;1.77;;
16403;SDS011;8311;50.158;8.642;2022-12-18T11:14:14;2.40;;;1.60;;
16403;SDS011;8311;50.158;8.642;2022-12-18T11:17:17;1.80;;;1.53;;
16403;SDS011;8311;50.158;8.642;2022-12-18T11:20:21;3.33;;;1.63;;
16403;SDS011;8311;50.158;8.642;2022-12-18T11:23:21;2.83;;;1.80;;
16403;SDS011;8311;50.158;8.642;2022-12-18T11:26:17;2.57;;;1.67;;
16403;SDS011;8311;50.158;8.642;2022-12-18T11:29:15;3.47;;;1.70;;
16403;SDS011;8311;50.158;8.642;2022-12-18T11:32:24;1.95;;;1.40;;
16403;SDS011;8311;50.158;8.642;2022-12-18T11:35:23;1.85;;;1.42;;
16403;SDS011;8311;50.158;8.642;2022-12-18T11:38:31;3.20;;;1.70;;
16403;SDS011;8311;50.158;8.642;2022-12-18T11:41:29;2.60;;;1.70;;
16403;SDS011;8311;50.158;8.642;2022-12-18T11:44:45;2.63;;;1.57;;
16403;SDS011;8311;50.158;8.642;2022-12-18T11:47:44;2.80;;;1.50;;
16403;SDS011;8311;50.158;8.642;2022-12-18T11:50:44;2.63;;;1.77;;
16403;SDS011;8311;50.158;8.642;2022-12-18T11:53:42;3.05;;;1.85;;
16403;SDS011;8311;50.158;8.642;2022-12-18T11:56:36;2.43;;;1.57;;
16403;SDS011;8311;50.158;8.642;2022-12-18T11:59:36;2.80;;;1.73;;
16403;SDS011;8311;50.158;8.642;2022-12-18T12:06:13;3.03;;;1.77;;
16403;SDS011;8311;50.158;8.642;2022-12-18T12:09:13;2.53;;;1.63;;
16403;SDS011;8311;50.158;8.642;2022-12-18T12:12:17;2.85;;;1.73;;
16403;SDS011;8311;50.158;8.642;2022-12-18T12:15:41;3.45;;;1.45;;
16403;SDS011;8311;50.158;8.642;2022-12-18T12:18:51;3.33;;;1.93;;
16403;SDS011;8311;50.158;8.642;2022-12-18T12:21:54;2.10;;;1.50;;
16403;SDS011;8311;50.158;8.642;2022-12-18T12:25:00;2.10;;;1.33;;
16403;SDS011;8311;50.158;8.642;2022-12-18T12:28:09;3.28;;;1.98;;
16403;SDS011;8311;50.158;8.642;2022-12-18T12:31:14;2.47;;;1.53;;
16403;SDS011;8311;50.158;8.642;2022-12-18T12:34:22;2.80;;;1.67;;
16403;SDS011;8311;50.158;8.642;2022-12-18T12:37:20;2.50;;;1.48;;
16403;SDS011;8311;50.158;8.642;2022-12-18T12:40:26;2.13;;;1.47;;
16403;SDS011;8311;50.158;8.642;2022-12-18T12:43:44;3.00;;;1.90;;
16403;SDS011;8311;50.158;8.642;2022-12-18T12:46:42;1.90;;;1.35;;
16403;SDS011;8311;50.158;8.642;2022-12-18T12:49:37;2.42;;;1.60;;
16403;SDS011;8311;50.158;8.642;2022-12-18T12:52:35;2.03;;;1.37;;
16403;SDS011;8311;50.158;8.642;2022-12-18T12:55:33;2.47;;;1.87;;
16403;SDS011;8311;50.158;8.642;2022-12-18T12:58:29;3.22;;;1.90;;
16403;SDS011;8311;50.158;8.642;2022-12-18T13:01:34;2.77;;;1.67;;
16403;SDS011;8311;50.158;8.642;2022-12-18T13:04:35;2.47;;;1.50;;
16403;SDS011;8311;50.158;8.642;2022-12-18T13:07:35;3.07;;;1.87;;
16403;SDS011;8311;50.158;8.642;2022-12-18T13:10:33;2.67;;;1.60;;
16403;SDS011;8311;50.158;8.642;2022-12-18T13:13:29;2.47;;;1.63;;
16403;SDS011;8311;50.158;8.642;2022-12-18T13:16:43;3.43;;;2.00;;
16403;SDS011;8311;50.158;8.642;2022-12-18T13:19:36;3.07;;;1.70;;
16403;SDS011;8311;50.158;8.642;2022-12-18T13:22:30;3.90;;;2.00;;
16403;SDS011;8311;50.158;8.642;2022-12-18T13:25:28;3.00;;;1.67;;
16403;SDS011;8311;50.158;8.642;2022-12-18T13:31:59;3.83;;;1.93;;
16403;SDS011;8311;50.158;8.642;2022-12-18T13:38:35;2.13;;;1.50;;
16403;SDS011;8311;50.158;8.642;2022-12-18T13:41:28;2.67;;;1.60;;
16403;SDS011;8311;50.158;8.642;2022-12-18T13:44:24;3.70;;;2.00;;
16403;SDS011;8311;50.158;8.642;2022-12-18T13:47:26;2.97;;;2.03;;
16403;SDS011;8311;50.158;8.642;2022-12-18T13:50:25;2.10;;;1.53;;
16403;SDS011;8311;50.158;8.642;2022-12-18T13:53:27;2.80;;;1.83;;
16403;SDS011;8311;50.158;8.642;2022-12-18T13:56:24;3.58;;;1.95;;
16403;SDS011;8311;50.158;8.642;2022-12-18T13:59:20;2.80;;;1.70;;
16403;SDS011;8311;50.158;8.642;2022-12-18T14:02:16;6.10;;;1.75;;
16403;SDS011;8311;50.158;8.642;2022-12-18T14:05:22;2.00;;;1.60;;
16403;SDS011;8311;50.158;8.642;2022-12-18T14:08:16;14.32;;;6.95;;
16403;SDS011;8311;50.158;8.642;2022-12-18T14:11:17;11.68;;;6.85;;
16403;SDS011;8311;50.158;8.642;2022-12-18T14:14:13;13.30;;;5.15;;
16403;SDS011;8311;50.158;8.642;2022-12-18T14:17:08;14.70;;;6.97;;
16403;SDS011;8311;50.158;8.642;2022-12-18T14:20:03;16.30;;;7.32;;
16403;SDS011;8311;50.158;8.642;2022-12-18T14:23:24;11.68;;;6.45;;
16403;SDS011;8311;50.158;8.642;2022-12-18T14:26:20;10.13;;;6.82;;
16403;SDS011;8311;50.158;8.642;2022-12-18T14:29:24;20.55;;;7.22;;
16403;SDS011;8311;50.158;8.642;2022-12-18T14:32:18;13.40;;;6.57;;
16403;SDS011;8311;50.158;8.642;2022-12-18T14:35:13;12.73;;;6.73;;
16403;SDS011;8311;50.158;8.642;2022-12-18T14:38:11;16.13;;;7.28;;
16403;SDS011;8311;50.158;8.642;2022-12-18T14:41:14;14.68;;;7.05;;
16403;SDS011;8311;50.158;8.642;2022-12-18T14:44:11;14.45;;;6.88;;
16403;SDS011;8311;50.158;8.642;2022-12-18T14:47:05;10.77;;;6.38;;
16403;SDS011;8311;50.158;8.642;2022-12-18T14:50:11;13.93;;;7.43;;
16403;SDS011;8311;50.158;8.642;2022-12-18T14:53:05;13.65;;;6.78;;
16403;SDS011;8311;50.158;8.642;2022-12-18T14:56:00;18.50;;;7.45;;
16403;SDS011;8311;50.158;8.642;2022-12-18T14:58:55;11.73;;;6.60;;
16403;SDS011;8311;50.158;8.642;2022-12-18T15:01:51;14.85;;;7.32;;
16403;SDS011;8311;50.158;8.642;2022-12-18T15:04:59;12.45;;;6.40;;
16403;SDS011;8311;50.158;8.642;2022-12-18T15:07:57;13.90;;;7.07;;
16403;SDS011;8311;50.158;8.642;2022-12-18T15:10:52;12.48;;;6.82;;
16403;SDS011;8311;50.158;8.642;2022-12-18T15:13:46;13.75;;;6.47;;
16403;SDS011;8311;50.158;8.642;2022-12-18T15:16:40;11.43;;;6.40;;
16403;SDS011;8311;50.158;8.642;2022-12-18T15:19:37;13.32;;;7.05;;
16403;SDS011;8311;50.158;8.642;2022-12-18T15:22:33;12.35;;;6.88;;
16403;SDS011;8311;50.158;8.642;2022-12-18T15:25:29;12.10;;;6.20;;
16403;SDS011;8311;50.158;8.642;2022-12-18T15:28:29;14.13;;;6.85;;
16403;SDS011;8311;50.158;8.642;2022-12-18T15:31:30;12.20;;;6.75;;
16403;SDS011;8311;50.158;8.642;2022-12-18T15:34:26;15.07;;;6.60;;
16403;SDS011;8311;50.158;8.642;2022-12-18T15:37:19;10.63;;;6.82;;
16403;SDS011;8311;50.158;8.642;2022-12-18T15:40:14;13.35;;;6.63;;
16403;SDS011;8311;50.158;8.642;2022-12-18T15:43:07;14.63;;;6.05;;
16403;SDS011;8311;50.158;8.642;2022-12-18T15:46:35;11.25;;;6.88;;
16403;SDS011;8311;50.158;8.642;2022-12-18T15:49:29;12.20;;;5.60;;
16403;SDS011;8311;50.158;8.642;2022-12-18T15:52:22;11.82;;;6.43;;
16403;SDS011;8311;50.158;8.642;2022-12-18T15:55:18;8.05;;;5.50;;
16403;SDS011;8311;50.158;8.642;2022-12-18T15:58:30;11.50;;;6.95;;
16403;SDS011;8311;50.158;8.642;2022-12-18T16:01:25;11.13;;;6.25;;
16403;SDS011;8311;50.158;8.642;2022-12-18T16:04:21;12.30;;;6.10;;
16403;SDS011;8311;50.158;8.642;2022-12-18T16:07:17;9.90;;;6.43;;
16403;SDS011;8311;50.158;8.642;2022-12-18T16:10:16;12.20;;;7.03;;
16403;SDS011;8311;50.158;8.642;2022-12-18T16:13:10;10.35;;;7.22;;
16403;SDS011;8311;50.158;8.642;2022-12-18T16:16:03;11.98;;;6.43;;
16403;SDS011;8311;50.158;8.642;2022-12-18T16:18:57;10.45;;;6.03;;
16403;SDS011;8311;50.158;8.642;2022-12-18T16:21:54;12.38;;;6.93;;
16403;SDS011;8311;50.158;8.642;2022-12-18T16:24:49;10.15;;;6.28;;
16403;SDS011;8311;50.158;8.642;2022-12-18T16:27:43;13.73;;;7.40;;
16403;SDS011;8311;50.158;8.642;2022-12-18T16:30:38;13.00;;;6.97;;
16403;SDS011;8311;50.158;8.642;2022-12-18T16:33:31;11.10;;;5.90;;
16403;SDS011;8311;50.158;8.642;2022-12-18T16:36:25;17.63;;;6.40;;
16403;SDS011;8311;50.158;8.642;2022-12-18T16:39:19;9.25;;;6.22;;
16403;SDS011;8311;50.158;8.642;2022-12-18T16:42:14;10.68;;;6.88;;
16403;SDS011;8311;50.158;8.642;2022-12-18T16:45:11;11.10;;;5.72;;
16403;SDS011;8311;50.158;8.642;2022-12-18T16:48:07;8.45;;;5.90;;
16403;SDS011;8311;50.158;8.642;2022-12-18T16:51:00;9.20;;;6.10;;
16403;SDS011;8311;50.158;8.642;2022-12-18T16:53:56;9.27;;;5.88;;
16403;SDS011;8311;50.158;8.642;2022-12-18T16:56:51;9.55;;;5.72;;
16403;SDS011;8311;50.158;8.642;2022-12-18T16:59:45;8.43;;;5.65;;
16403;SDS011;8311;50.158;8.642;2022-12-18T17:02:39;6.95;;;4.88;;
16403;SDS011;8311;50.158;8.642;2022-12-18T17:05:33;9.18;;;5.40;;
16403;SDS011;8311;50.158;8.642;2022-12-18T17:08:25;8.68;;;5.47;;
16403;SDS011;8311;50.158;8.642;2022-12-18T17:11:19;9.05;;;5.85;;
16403;SDS011;8311;50.158;8.642;2022-12-18T17:14:13;8.10;;;5.40;;
16403;SDS011;8311;50.158;8.642;2022-12-18T17:17:09;9.02;;;5.43;;
16403;SDS011;8311;50.158;8.642;2022-12-18T17:20:11;8.88;;;5.00;;
16403;SDS011;8311;50.158;8.642;2022-12-18T17:23:05;9.77;;;5.38;;
16403;SDS011;8311;50.158;8.642;2022-12-18T17:25:58;7.60;;;5.28;;
16403;SDS011;8311;50.158;8.642;2022-12-18T17:28:51;7.75;;;4.82;;
16403;SDS011;8311;50.158;8.642;2022-12-18T17:31:45;8.07;;;5.13;;
16403;SDS011;8311;50.158;8.642;2022-12-18T17:34:39;7.80;;;4.47;;
16403;SDS011;8311;50.158;8.642;2022-12-18T17:37:31;7.32;;;4.93;;
16403;SDS011;8311;50.158;8.642;2022-12-18T17:40:25;7.93;;;5.18;;
16403;SDS011;8311;50.158;8.642;2022-12-18T17:43:18;7.93;;;4.80;;
16403;SDS011;8311;50.158;8.642;2022-12-18T17:46:13;9.20;;;5.20;;
16403;SDS011;8311;50.158;8.642;2022-12-18T17:49:08;6.78;;;4.85;;
16403;SDS011;8311;50.158;8.642;2022-12-18T17:52:02;7.80;;;4.85;;
16403;SDS011;8311;50.158;8.642;2022-12-18T17:54:55;7.68;;;4.97;;
16403;SDS011;8311;50.158;8.642;2022-12-18T17:57:48;7.25;;;4.85;;
16403;SDS011;8311;50.158;8.642;2022-12-18T18:00:41;6.88;;;5.13;;
16403;SDS011;8311;50.158;8.642;2022-12-18T18:03:34;8.63;;;5.10;;
16403;SDS011;8311;50.158;8.642;2022-12-18T18:06:30;6.75;;;5.00;;
16403;SDS011;8311;50.158;8.642;2022-12-18T18:09:28;7.18;;;4.68;;
16403;SDS011;8311;50.158;8.642;2022-12-18T18:12:22;8.05;;;4.53;;